sensor_id;sensor_type;location;lat;lon;timestamp;P1;durP1;ratioP1;P2;durP2;ratioP2
22146;SDS011;13074;48.298;14.424;2023-12-28T02:17:50;20.20;;;12.20;;
22146;SDS011;13074;48.298;14.424;2023-12-28T02:20:57;23.67;;;12.40;;
22146;SDS011;13074;48.298;14.424;2023-12-28T02:23:47;26.20;;;14.57;;
22146;SDS011;13074;48.298;14.424;2023-12-28T02:47:33;45.87;;;21.83;;
22146;SDS011;13074;48.298;14.424;2023-12-28T02:50:20;55.07;;;24.03;;
22146;SDS011;13074;48.298;14.424;2023-12-28T02:53:03;49.60;;;24.17;;
22146;SDS011;13074;48.298;14.424;2023-12-28T02:59:09;63.37;;;29.43;;
22146;SDS011;13074;48.298;14.424;2023-12-28T03:01:52;67.03;;;29.50;;
22146;SDS011;13074;48.298;14.424;2023-12-28T03:28:19;18.70;;;10.30;;
22146;SDS011;13074;48.298;14.424;2023-12-28T03:31:27;16.80;;;9.63;;
22146;SDS011;13074;48.298;14.424;2023-12-28T03:34:28;24.53;;;13.93;;
22146;SDS011;13074;48.298;14.424;2023-12-28T03:37:40;27.03;;;15.07;;
22146;SDS011;13074;48.298;14.424;2023-12-28T03:57:31;52.17;;;25.03;;
22146;SDS011;13074;48.298;14.424;2023-12-28T04:00:17;43.73;;;19.00;;
22146;SDS011;13074;48.298;14.424;2023-12-28T04:02:50;41.30;;;21.33;;
22146;SDS011;13074;48.298;14.424;2023-12-28T04:05:40;37.27;;;19.67;;
22146;SDS011;13074;48.298;14.424;2023-12-28T04:12:11;36.40;;;18.63;;
22146;SDS011;13074;48.298;14.424;2023-12-28T04:18:47;61.93;;;27.40;;
22146;SDS011;13074;48.298;14.424;2023-12-28T04:21:38;50.93;;;24.70;;
22146;SDS011;13074;48.298;14.424;2023-12-28T04:28:26;46.47;;;23.07;;
22146;SDS011;13074;48.298;14.424;2023-12-28T04:31:42;51.07;;;22.97;;
22146;SDS011;13074;48.298;14.424;2023-12-28T04:38:17;47.10;;;21.87;;
22146;SDS011;13074;48.298;14.424;2023-12-28T04:44:21;43.90;;;22.13;;
22146;SDS011;13074;48.298;14.424;2023-12-28T04:50:21;44.43;;;21.77;;
22146;SDS011;13074;48.298;14.424;2023-12-28T04:53:08;36.60;;;21.03;;
22146;SDS011;13074;48.298;14.424;2023-12-28T04:56:20;39.13;;;20.90;;
22146;SDS011;13074;48.298;14.424;2023-12-28T05:24:58;38.57;;;20.87;;
22146;SDS011;13074;48.298;14.424;2023-12-28T05:27:47;36.40;;;21.60;;
22146;SDS011;13074;48.298;14.424;2023-12-28T05:30:38;45.77;;;21.40;;
22146;SDS011;13074;48.298;14.424;2023-12-28T05:33:39;40.73;;;21.83;;
22146;SDS011;13074;48.298;14.424;2023-12-28T05:36:16;46.20;;;21.93;;
22146;SDS011;13074;48.298;14.424;2023-12-28T05:42:16;22.73;;;13.30;;
22146;SDS011;13074;48.298;14.424;2023-12-28T05:45:10;26.50;;;13.37;;
22146;SDS011;13074;48.298;14.424;2023-12-28T05:47:54;29.33;;;14.73;;
22146;SDS011;13074;48.298;14.424;2023-12-28T05:50:28;33.07;;;16.67;;
22146;SDS011;13074;48.298;14.424;2023-12-28T05:53:16;25.07;;;14.43;;
22146;SDS011;13074;48.298;14.424;2023-12-28T05:59:48;23.83;;;13.80;;
22146;SDS011;13074;48.298;14.424;2023-12-28T06:02:25;26.93;;;14.90;;
22146;SDS011;13074;48.298;14.424;2023-12-28T06:05:16;29.17;;;15.63;;
22146;SDS011;13074;48.298;14.424;2023-12-28T06:07:55;24.10;;;14.50;;
22146;SDS011;13074;48.298;14.424;2023-12-28T06:10:40;30.10;;;16.13;;
22146;SDS011;13074;48.298;14.424;2023-12-28T06:13:34;29.37;;;16.40;;
22146;SDS011;13074;48.298;14.424;2023-12-28T06:16:13;33.07;;;17.33;;
22146;SDS011;13074;48.298;14.424;2023-12-28T06:18:59;32.57;;;17.57;;
22146;SDS011;13074;48.298;14.424;2023-12-28T06:21:44;38.87;;;18.53;;
22146;SDS011;13074;48.298;14.424;2023-12-28T06:24:29;38.57;;;19.87;;
22146;SDS011;13074;48.298;14.424;2023-12-28T06:27:16;42.53;;;20.20;;
22146;SDS011;13074;48.298;14.424;2023-12-28T06:29:48;39.03;;;20.17;;
22146;SDS011;13074;48.298;14.424;2023-12-28T06:32:42;34.13;;;20.47;;
22146;SDS011;13074;48.298;14.424;2023-12-28T06:35:16;41.23;;;21.47;;
22146;SDS011;13074;48.298;14.424;2023-12-28T06:38:05;38.40;;;20.73;;
22146;SDS011;13074;48.298;14.424;2023-12-28T06:40:52;37.57;;;20.27;;
22146;SDS011;13074;48.298;14.424;2023-12-28T06:43:37;41.40;;;21.53;;
22146;SDS011;13074;48.298;14.424;2023-12-28T06:49:47;40.30;;;21.50;;
22146;SDS011;13074;48.298;14.424;2023-12-28T06:52:37;33.37;;;19.53;;
22146;SDS011;13074;48.298;14.424;2023-12-28T06:55:43;35.43;;;20.67;;
22146;SDS011;13074;48.298;14.424;2023-12-28T06:58:39;33.20;;;19.53;;
22146;SDS011;13074;48.298;14.424;2023-12-28T07:01:10;37.50;;;20.63;;
22146;SDS011;13074;48.298;14.424;2023-12-28T07:03:45;41.60;;;22.13;;
22146;SDS011;13074;48.298;14.424;2023-12-28T07:06:32;42.97;;;22.10;;
22146;SDS011;13074;48.298;14.424;2023-12-28T07:09:21;41.27;;;20.53;;
22146;SDS011;13074;48.298;14.424;2023-12-28T07:12:17;41.50;;;22.23;;
22146;SDS011;13074;48.298;14.424;2023-12-28T07:14:50;38.63;;;22.20;;
22146;SDS011;13074;48.298;14.424;2023-12-28T07:17:36;37.33;;;22.90;;
22146;SDS011;13074;48.298;14.424;2023-12-28T07:20:07;43.40;;;22.77;;
22146;SDS011;13074;48.298;14.424;2023-12-28T07:23:01;47.23;;;25.27;;
22146;SDS011;13074;48.298;14.424;2023-12-28T07:25:54;43.90;;;25.67;;
22146;SDS011;13074;48.298;14.424;2023-12-28T07:28:33;54.53;;;28.37;;
22146;SDS011;13074;48.298;14.424;2023-12-28T07:36:43;49.87;;;25.70;;
22146;SDS011;13074;48.298;14.424;2023-12-28T07:39:37;56.30;;;27.27;;
22146;SDS011;13074;48.298;14.424;2023-12-28T07:42:21;54.17;;;26.03;;
22146;SDS011;13074;48.298;14.424;2023-12-28T07:45:06;55.97;;;28.20;;
22146;SDS011;13074;48.298;14.424;2023-12-28T07:47:52;52.10;;;26.37;;
22146;SDS011;13074;48.298;14.424;2023-12-28T07:50:35;52.30;;;24.97;;
22146;SDS011;13074;48.298;14.424;2023-12-28T07:53:35;53.90;;;27.23;;
22146;SDS011;13074;48.298;14.424;2023-12-28T07:56:10;43.63;;;25.63;;
22146;SDS011;13074;48.298;14.424;2023-12-28T07:58:41;45.27;;;24.40;;
22146;SDS011;13074;48.298;14.424;2023-12-28T08:01:14;54.37;;;27.13;;
22146;SDS011;13074;48.298;14.424;2023-12-28T08:03:43;59.83;;;26.33;;
22146;SDS011;13074;48.298;14.424;2023-12-28T08:06:12;50.50;;;24.80;;
22146;SDS011;13074;48.298;14.424;2023-12-28T08:08:41;53.90;;;26.33;;
22146;SDS011;13074;48.298;14.424;2023-12-28T08:11:11;41.73;;;21.93;;
22146;SDS011;13074;48.298;14.424;2023-12-28T08:13:38;42.50;;;22.97;;
22146;SDS011;13074;48.298;14.424;2023-12-28T08:16:06;37.57;;;22.00;;
22146;SDS011;13074;48.298;14.424;2023-12-28T08:18:35;48.83;;;24.30;;
22146;SDS011;13074;48.298;14.424;2023-12-28T08:21:03;45.20;;;25.03;;
22146;SDS011;13074;48.298;14.424;2023-12-28T08:23:31;41.93;;;24.00;;
22146;SDS011;13074;48.298;14.424;2023-12-28T08:26:05;44.07;;;23.83;;
22146;SDS011;13074;48.298;14.424;2023-12-28T08:28:34;47.60;;;25.57;;
22146;SDS011;13074;48.298;14.424;2023-12-28T08:31:02;48.93;;;26.50;;
22146;SDS011;13074;48.298;14.424;2023-12-28T08:33:29;46.97;;;24.93;;
22146;SDS011;13074;48.298;14.424;2023-12-28T08:35:57;51.20;;;26.97;;
22146;SDS011;13074;48.298;14.424;2023-12-28T08:38:25;49.00;;;27.23;;
22146;SDS011;13074;48.298;14.424;2023-12-28T08:40:52;29.57;;;18.60;;
22146;SDS011;13074;48.298;14.424;2023-12-28T08:43:20;31.73;;;17.10;;
22146;SDS011;13074;48.298;14.424;2023-12-28T08:45:49;30.13;;;17.90;;
22146;SDS011;13074;48.298;14.424;2023-12-28T08:48:16;34.13;;;17.90;;
22146;SDS011;13074;48.298;14.424;2023-12-28T08:50:43;29.43;;;16.73;;
22146;SDS011;13074;48.298;14.424;2023-12-28T08:53:11;30.87;;;17.17;;
22146;SDS011;13074;48.298;14.424;2023-12-28T08:55:38;30.53;;;16.23;;
22146;SDS011;13074;48.298;14.424;2023-12-28T08:58:06;23.53;;;14.07;;
22146;SDS011;13074;48.298;14.424;2023-12-28T09:00:33;30.40;;;15.13;;
22146;SDS011;13074;48.298;14.424;2023-12-28T09:03:03;42.27;;;20.30;;
22146;SDS011;13074;48.298;14.424;2023-12-28T09:05:30;89.77;;;27.93;;
22146;SDS011;13074;48.298;14.424;2023-12-28T09:07:58;89.57;;;26.83;;
22146;SDS011;13074;48.298;14.424;2023-12-28T09:10:26;70.37;;;29.50;;
22146;SDS011;13074;48.298;14.424;2023-12-28T09:12:53;73.50;;;31.40;;
22146;SDS011;13074;48.298;14.424;2023-12-28T09:15:21;81.10;;;31.90;;
22146;SDS011;13074;48.298;14.424;2023-12-28T09:17:48;647.20;;;69.43;;
22146;SDS011;13074;48.298;14.424;2023-12-28T09:20:18;387.13;;;53.70;;
22146;SDS011;13074;48.298;14.424;2023-12-28T09:22:46;175.40;;;46.27;;
22146;SDS011;13074;48.298;14.424;2023-12-28T09:25:18;91.23;;;37.20;;
22146;SDS011;13074;48.298;14.424;2023-12-28T09:27:46;157.73;;;46.13;;
22146;SDS011;13074;48.298;14.424;2023-12-28T09:30:13;113.73;;;41.40;;
22146;SDS011;13074;48.298;14.424;2023-12-28T09:32:41;71.10;;;31.60;;
22146;SDS011;13074;48.298;14.424;2023-12-28T09:35:08;159.97;;;52.13;;
22146;SDS011;13074;48.298;14.424;2023-12-28T09:37:37;119.97;;;45.20;;
22146;SDS011;13074;48.298;14.424;2023-12-28T09:40:05;111.77;;;40.63;;
22146;SDS011;13074;48.298;14.424;2023-12-28T09:42:36;86.97;;;35.63;;
22146;SDS011;13074;48.298;14.424;2023-12-28T09:45:10;132.80;;;46.00;;
22146;SDS011;13074;48.298;14.424;2023-12-28T09:47:39;130.67;;;43.83;;
22146;SDS011;13074;48.298;14.424;2023-12-28T09:50:08;93.23;;;36.13;;
22146;SDS011;13074;48.298;14.424;2023-12-28T09:52:40;84.43;;;32.33;;
22146;SDS011;13074;48.298;14.424;2023-12-28T09:55:08;63.63;;;27.90;;
22146;SDS011;13074;48.298;14.424;2023-12-28T09:57:36;52.07;;;24.93;;
22146;SDS011;13074;48.298;14.424;2023-12-28T10:00:05;48.77;;;22.83;;
22146;SDS011;13074;48.298;14.424;2023-12-28T10:02:33;77.90;;;31.83;;
22146;SDS011;13074;48.298;14.424;2023-12-28T10:05:01;310.87;;;42.20;;
22146;SDS011;13074;48.298;14.424;2023-12-28T10:07:28;288.83;;;45.53;;
22146;SDS011;13074;48.298;14.424;2023-12-28T10:09:58;120.80;;;32.77;;
22146;SDS011;13074;48.298;14.424;2023-12-28T10:12:26;74.87;;;30.60;;
22146;SDS011;13074;48.298;14.424;2023-12-28T10:14:54;72.90;;;29.10;;
22146;SDS011;13074;48.298;14.424;2023-12-28T10:17:21;55.83;;;26.57;;
22146;SDS011;13074;48.298;14.424;2023-12-28T10:19:48;62.17;;;28.33;;
22146;SDS011;13074;48.298;14.424;2023-12-28T10:22:16;49.97;;;23.63;;
22146;SDS011;13074;48.298;14.424;2023-12-28T10:24:43;54.57;;;21.30;;
22146;SDS011;13074;48.298;14.424;2023-12-28T10:27:12;42.47;;;20.63;;
22146;SDS011;13074;48.298;14.424;2023-12-28T10:29:40;42.93;;;20.47;;
22146;SDS011;13074;48.298;14.424;2023-12-28T10:32:08;41.87;;;20.13;;
22146;SDS011;13074;48.298;14.424;2023-12-28T10:34:36;36.10;;;18.50;;
22146;SDS011;13074;48.298;14.424;2023-12-28T10:37:03;50.30;;;23.93;;
22146;SDS011;13074;48.298;14.424;2023-12-28T10:39:32;45.93;;;23.73;;
22146;SDS011;13074;48.298;14.424;2023-12-28T10:42:03;41.53;;;21.90;;
22146;SDS011;13074;48.298;14.424;2023-12-28T10:44:36;40.77;;;20.97;;
22146;SDS011;13074;48.298;14.424;2023-12-28T10:47:11;40.90;;;20.30;;
22146;SDS011;13074;48.298;14.424;2023-12-28T10:49:42;39.17;;;20.87;;
22146;SDS011;13074;48.298;14.424;2023-12-28T10:52:12;44.77;;;21.40;;
22146;SDS011;13074;48.298;14.424;2023-12-28T10:54:44;35.70;;;18.60;;
22146;SDS011;13074;48.298;14.424;2023-12-28T10:57:16;37.40;;;19.33;;
22146;SDS011;13074;48.298;14.424;2023-12-28T10:59:55;45.10;;;21.17;;
22146;SDS011;13074;48.298;14.424;2023-12-28T11:02:33;40.57;;;20.73;;
22146;SDS011;13074;48.298;14.424;2023-12-28T11:05:05;41.50;;;19.97;;
22146;SDS011;13074;48.298;14.424;2023-12-28T11:07:33;44.33;;;21.47;;
22146;SDS011;13074;48.298;14.424;2023-12-28T11:10:03;49.50;;;22.13;;
22146;SDS011;13074;48.298;14.424;2023-12-28T11:12:32;54.93;;;23.33;;
22146;SDS011;13074;48.298;14.424;2023-12-28T11:15:02;56.33;;;25.57;;
22146;SDS011;13074;48.298;14.424;2023-12-28T11:17:31;50.87;;;24.90;;
22146;SDS011;13074;48.298;14.424;2023-12-28T11:20:01;52.13;;;26.00;;
22146;SDS011;13074;48.298;14.424;2023-12-28T11:22:30;51.97;;;25.50;;
22146;SDS011;13074;48.298;14.424;2023-12-28T11:24:59;48.43;;;22.87;;
22146;SDS011;13074;48.298;14.424;2023-12-28T11:27:33;46.20;;;22.83;;
22146;SDS011;13074;48.298;14.424;2023-12-28T11:30:03;46.47;;;23.87;;
22146;SDS011;13074;48.298;14.424;2023-12-28T11:32:32;54.10;;;23.03;;
22146;SDS011;13074;48.298;14.424;2023-12-28T11:35:00;54.17;;;24.13;;
22146;SDS011;13074;48.298;14.424;2023-12-28T11:37:27;50.10;;;24.83;;
22146;SDS011;13074;48.298;14.424;2023-12-28T11:39:57;51.27;;;24.77;;
22146;SDS011;13074;48.298;14.424;2023-12-28T11:42:27;46.43;;;23.23;;
22146;SDS011;13074;48.298;14.424;2023-12-28T11:44:54;40.33;;;20.60;;
22146;SDS011;13074;48.298;14.424;2023-12-28T11:47:24;44.93;;;21.97;;
22146;SDS011;13074;48.298;14.424;2023-12-28T11:49:52;53.33;;;26.13;;
22146;SDS011;13074;48.298;14.424;2023-12-28T11:52:23;68.53;;;30.87;;
22146;SDS011;13074;48.298;14.424;2023-12-28T11:54:51;74.57;;;32.00;;
22146;SDS011;13074;48.298;14.424;2023-12-28T11:57:19;69.73;;;30.97;;
22146;SDS011;13074;48.298;14.424;2023-12-28T11:59:47;72.40;;;31.30;;
22146;SDS011;13074;48.298;14.424;2023-12-28T12:02:19;63.93;;;30.20;;
22146;SDS011;13074;48.298;14.424;2023-12-28T12:04:48;66.57;;;30.07;;
22146;SDS011;13074;48.298;14.424;2023-12-28T12:07:16;63.97;;;29.93;;
22146;SDS011;13074;48.298;14.424;2023-12-28T12:09:43;59.87;;;28.23;;
22146;SDS011;13074;48.298;14.424;2023-12-28T12:12:11;56.83;;;27.63;;
22146;SDS011;13074;48.298;14.424;2023-12-28T12:14:38;59.97;;;28.27;;
22146;SDS011;13074;48.298;14.424;2023-12-28T12:17:06;62.17;;;27.30;;
22146;SDS011;13074;48.298;14.424;2023-12-28T12:19:34;61.73;;;28.27;;
22146;SDS011;13074;48.298;14.424;2023-12-28T12:22:03;58.47;;;29.00;;
22146;SDS011;13074;48.298;14.424;2023-12-28T12:24:30;68.07;;;32.40;;
22146;SDS011;13074;48.298;14.424;2023-12-28T12:26:59;55.83;;;30.60;;
22146;SDS011;13074;48.298;14.424;2023-12-28T12:29:29;54.93;;;27.77;;
22146;SDS011;13074;48.298;14.424;2023-12-28T12:31:56;51.37;;;24.00;;
22146;SDS011;13074;48.298;14.424;2023-12-28T12:34:26;46.67;;;22.87;;
22146;SDS011;13074;48.298;14.424;2023-12-28T12:36:54;62.00;;;29.80;;
22146;SDS011;13074;48.298;14.424;2023-12-28T12:39:25;68.53;;;32.47;;
22146;SDS011;13074;48.298;14.424;2023-12-28T12:41:52;71.03;;;33.43;;
22146;SDS011;13074;48.298;14.424;2023-12-28T12:44:22;65.53;;;30.17;;
22146;SDS011;13074;48.298;14.424;2023-12-28T12:46:56;60.03;;;28.07;;
22146;SDS011;13074;48.298;14.424;2023-12-28T12:49:24;49.83;;;25.00;;
22146;SDS011;13074;48.298;14.424;2023-12-28T12:51:52;54.73;;;25.80;;
22146;SDS011;13074;48.298;14.424;2023-12-28T12:54:19;55.83;;;27.17;;
22146;SDS011;13074;48.298;14.424;2023-12-28T12:56:48;46.60;;;25.07;;
22146;SDS011;13074;48.298;14.424;2023-12-28T12:59:17;44.97;;;22.47;;
22146;SDS011;13074;48.298;14.424;2023-12-28T13:01:45;43.67;;;21.50;;
22146;SDS011;13074;48.298;14.424;2023-12-28T13:04:14;40.60;;;21.77;;
22146;SDS011;13074;48.298;14.424;2023-12-28T13:06:42;39.27;;;18.63;;
22146;SDS011;13074;48.298;14.424;2023-12-28T13:09:10;30.93;;;17.70;;
22146;SDS011;13074;48.298;14.424;2023-12-28T13:11:37;30.03;;;16.07;;
22146;SDS011;13074;48.298;14.424;2023-12-28T13:14:06;30.27;;;15.13;;
22146;SDS011;13074;48.298;14.424;2023-12-28T13:16:33;34.30;;;15.90;;
22146;SDS011;13074;48.298;14.424;2023-12-28T13:19:01;27.73;;;13.87;;
22146;SDS011;13074;48.298;14.424;2023-12-28T13:21:28;23.37;;;12.23;;
22146;SDS011;13074;48.298;14.424;2023-12-28T13:23:55;31.40;;;15.20;;
22146;SDS011;13074;48.298;14.424;2023-12-28T13:26:24;29.20;;;14.73;;
22146;SDS011;13074;48.298;14.424;2023-12-28T13:28:52;39.90;;;19.90;;
22146;SDS011;13074;48.298;14.424;2023-12-28T13:31:21;78.20;;;35.13;;
22146;SDS011;13074;48.298;14.424;2023-12-28T13:33:50;87.73;;;38.70;;
22146;SDS011;13074;48.298;14.424;2023-12-28T13:36:17;83.50;;;37.87;;
22146;SDS011;13074;48.298;14.424;2023-12-28T13:38:44;76.57;;;36.90;;
22146;SDS011;13074;48.298;14.424;2023-12-28T13:41:13;78.07;;;35.33;;
22146;SDS011;13074;48.298;14.424;2023-12-28T13:43:40;75.93;;;34.23;;
22146;SDS011;13074;48.298;14.424;2023-12-28T13:46:08;55.77;;;24.83;;
22146;SDS011;13074;48.298;14.424;2023-12-28T13:48:37;41.27;;;18.67;;
22146;SDS011;13074;48.298;14.424;2023-12-28T13:51:05;24.00;;;13.07;;
22146;SDS011;13074;48.298;14.424;2023-12-28T13:53:33;25.67;;;12.13;;
22146;SDS011;13074;48.298;14.424;2023-12-28T13:56:05;18.07;;;9.40;;
22146;SDS011;13074;48.298;14.424;2023-12-28T13:58:33;18.00;;;9.73;;
22146;SDS011;13074;48.298;14.424;2023-12-28T14:01:01;16.97;;;9.63;;
22146;SDS011;13074;48.298;14.424;2023-12-28T14:03:29;15.50;;;7.90;;
22146;SDS011;13074;48.298;14.424;2023-12-28T14:05:58;15.17;;;8.00;;
22146;SDS011;13074;48.298;14.424;2023-12-28T14:08:25;17.33;;;8.90;;
22146;SDS011;13074;48.298;14.424;2023-12-28T14:10:53;19.67;;;9.30;;
22146;SDS011;13074;48.298;14.424;2023-12-28T14:13:20;18.73;;;9.37;;
22146;SDS011;13074;48.298;14.424;2023-12-28T14:15:48;16.80;;;9.17;;
22146;SDS011;13074;48.298;14.424;2023-12-28T14:18:15;18.23;;;9.93;;
22146;SDS011;13074;48.298;14.424;2023-12-28T14:20:43;15.73;;;8.50;;
22146;SDS011;13074;48.298;14.424;2023-12-28T14:23:12;16.83;;;9.23;;
22146;SDS011;13074;48.298;14.424;2023-12-28T14:25:40;16.03;;;8.67;;
22146;SDS011;13074;48.298;14.424;2023-12-28T14:28:09;17.00;;;8.47;;
22146;SDS011;13074;48.298;14.424;2023-12-28T14:30:37;17.40;;;8.40;;
22146;SDS011;13074;48.298;14.424;2023-12-28T14:33:05;15.23;;;8.50;;
22146;SDS011;13074;48.298;14.424;2023-12-28T14:35:34;16.00;;;8.50;;
22146;SDS011;13074;48.298;14.424;2023-12-28T14:38:01;16.77;;;8.27;;
22146;SDS011;13074;48.298;14.424;2023-12-28T14:40:30;13.90;;;7.53;;
22146;SDS011;13074;48.298;14.424;2023-12-28T14:42:58;14.50;;;6.97;;
22146;SDS011;13074;48.298;14.424;2023-12-28T14:45:25;11.00;;;6.87;;
22146;SDS011;13074;48.298;14.424;2023-12-28T14:47:53;11.30;;;6.37;;
22146;SDS011;13074;48.298;14.424;2023-12-28T14:50:20;12.57;;;6.20;;
22146;SDS011;13074;48.298;14.424;2023-12-28T14:52:48;11.17;;;5.67;;
22146;SDS011;13074;48.298;14.424;2023-12-28T14:55:15;11.43;;;5.10;;
22146;SDS011;13074;48.298;14.424;2023-12-28T14:57:44;13.53;;;6.00;;
22146;SDS011;13074;48.298;14.424;2023-12-28T15:00:12;10.63;;;5.30;;
22146;SDS011;13074;48.298;14.424;2023-12-28T15:02:40;10.87;;;6.23;;
22146;SDS011;13074;48.298;14.424;2023-12-28T15:05:07;14.43;;;6.83;;
22146;SDS011;13074;48.298;14.424;2023-12-28T15:07:37;14.03;;;7.17;;
22146;SDS011;13074;48.298;14.424;2023-12-28T15:10:05;12.53;;;6.47;;
22146;SDS011;13074;48.298;14.424;2023-12-28T15:12:34;13.57;;;7.30;;
22146;SDS011;13074;48.298;14.424;2023-12-28T15:15:04;11.43;;;6.33;;
22146;SDS011;13074;48.298;14.424;2023-12-28T15:17:33;13.53;;;6.87;;
22146;SDS011;13074;48.298;14.424;2023-12-28T15:20:01;15.13;;;6.80;;
22146;SDS011;13074;48.298;14.424;2023-12-28T15:22:29;18.50;;;8.73;;
22146;SDS011;13074;48.298;14.424;2023-12-28T15:24:56;16.30;;;7.93;;
22146;SDS011;13074;48.298;14.424;2023-12-28T15:27:24;18.07;;;8.30;;
22146;SDS011;13074;48.298;14.424;2023-12-28T15:29:51;13.63;;;7.30;;
22146;SDS011;13074;48.298;14.424;2023-12-28T15:32:20;12.70;;;5.40;;
22146;SDS011;13074;48.298;14.424;2023-12-28T15:34:48;11.27;;;5.83;;
22146;SDS011;13074;48.298;14.424;2023-12-28T15:37:15;21.73;;;7.33;;
22146;SDS011;13074;48.298;14.424;2023-12-28T15:39:42;9.30;;;5.27;;
22146;SDS011;13074;48.298;14.424;2023-12-28T15:42:10;9.23;;;5.43;;
22146;SDS011;13074;48.298;14.424;2023-12-28T15:44:37;12.00;;;6.23;;
22146;SDS011;13074;48.298;14.424;2023-12-28T15:47:05;14.50;;;6.13;;
22146;SDS011;13074;48.298;14.424;2023-12-28T15:49:34;15.03;;;8.07;;
22146;SDS011;13074;48.298;14.424;2023-12-28T15:52:01;11.93;;;6.00;;
22146;SDS011;13074;48.298;14.424;2023-12-28T15:54:29;9.47;;;5.80;;
22146;SDS011;13074;48.298;14.424;2023-12-28T15:56:56;11.20;;;6.17;;
22146;SDS011;13074;48.298;14.424;2023-12-28T15:59:24;12.53;;;6.60;;
22146;SDS011;13074;48.298;14.424;2023-12-28T16:01:51;15.97;;;6.27;;
22146;SDS011;13074;48.298;14.424;2023-12-28T16:04:18;11.03;;;6.57;;
22146;SDS011;13074;48.298;14.424;2023-12-28T16:06:47;12.93;;;5.70;;
22146;SDS011;13074;48.298;14.424;2023-12-28T16:09:15;10.27;;;5.73;;
22146;SDS011;13074;48.298;14.424;2023-12-28T16:11:42;11.93;;;6.57;;
22146;SDS011;13074;48.298;14.424;2023-12-28T16:14:10;7.87;;;4.33;;
22146;SDS011;13074;48.298;14.424;2023-12-28T16:16:38;9.40;;;4.73;;
22146;SDS011;13074;48.298;14.424;2023-12-28T16:19:06;9.03;;;5.63;;
22146;SDS011;13074;48.298;14.424;2023-12-28T16:21:34;11.97;;;5.97;;
22146;SDS011;13074;48.298;14.424;2023-12-28T16:24:04;9.27;;;5.03;;
22146;SDS011;13074;48.298;14.424;2023-12-28T16:26:32;10.13;;;5.00;;
22146;SDS011;13074;48.298;14.424;2023-12-28T16:29:00;12.63;;;6.00;;
22146;SDS011;13074;48.298;14.424;2023-12-28T16:31:29;9.33;;;5.77;;
22146;SDS011;13074;48.298;14.424;2023-12-28T16:33:56;8.93;;;5.80;;
22146;SDS011;13074;48.298;14.424;2023-12-28T16:36:24;10.90;;;5.67;;
22146;SDS011;13074;48.298;14.424;2023-12-28T16:38:51;10.43;;;6.10;;
22146;SDS011;13074;48.298;14.424;2023-12-28T16:41:20;14.73;;;8.67;;
22146;SDS011;13074;48.298;14.424;2023-12-28T16:43:47;19.17;;;9.23;;
22146;SDS011;13074;48.298;14.424;2023-12-28T16:46:15;16.47;;;9.00;;
22146;SDS011;13074;48.298;14.424;2023-12-28T16:48:43;16.63;;;8.67;;
22146;SDS011;13074;48.298;14.424;2023-12-28T16:51:10;16.13;;;9.83;;
22146;SDS011;13074;48.298;14.424;2023-12-28T16:53:38;21.00;;;10.83;;
22146;SDS011;13074;48.298;14.424;2023-12-28T16:56:05;23.33;;;12.27;;
22146;SDS011;13074;48.298;14.424;2023-12-28T16:58:34;28.67;;;12.83;;
22146;SDS011;13074;48.298;14.424;2023-12-28T17:01:02;24.87;;;14.20;;
22146;SDS011;13074;48.298;14.424;2023-12-28T17:03:29;69.73;;;31.57;;
22146;SDS011;13074;48.298;14.424;2023-12-28T17:05:57;69.33;;;31.00;;
22146;SDS011;13074;48.298;14.424;2023-12-28T17:08:24;53.43;;;26.63;;
22146;SDS011;13074;48.298;14.424;2023-12-28T17:10:52;37.60;;;16.50;;
22146;SDS011;13074;48.298;14.424;2023-12-28T17:13:20;23.13;;;10.43;;
22146;SDS011;13074;48.298;14.424;2023-12-28T17:15:50;20.37;;;10.60;;
22146;SDS011;13074;48.298;14.424;2023-12-28T17:18:18;21.83;;;10.60;;
22146;SDS011;13074;48.298;14.424;2023-12-28T17:20:46;19.00;;;10.90;;
22146;SDS011;13074;48.298;14.424;2023-12-28T17:23:15;16.07;;;9.63;;
22146;SDS011;13074;48.298;14.424;2023-12-28T17:25:50;133.40;;;63.40;;
22146;SDS011;13074;48.298;14.424;2023-12-28T17:28:23;25.40;;;13.97;;
22146;SDS011;13074;48.298;14.424;2023-12-28T17:30:53;29.73;;;13.70;;
22146;SDS011;13074;48.298;14.424;2023-12-28T17:33:21;26.47;;;13.00;;
22146;SDS011;13074;48.298;14.424;2023-12-28T17:35:49;29.03;;;13.47;;
22146;SDS011;13074;48.298;14.424;2023-12-28T17:38:17;22.80;;;11.53;;
22146;SDS011;13074;48.298;14.424;2023-12-28T17:40:45;24.10;;;11.80;;
22146;SDS011;13074;48.298;14.424;2023-12-28T17:43:14;29.63;;;15.60;;
22146;SDS011;13074;48.298;14.424;2023-12-28T17:45:47;24.30;;;14.03;;
22146;SDS011;13074;48.298;14.424;2023-12-28T17:48:26;29.13;;;14.13;;
22146;SDS011;13074;48.298;14.424;2023-12-28T17:50:57;24.87;;;13.57;;
22146;SDS011;13074;48.298;14.424;2023-12-28T17:53:27;26.90;;;14.90;;
22146;SDS011;13074;48.298;14.424;2023-12-28T17:55:55;32.40;;;16.00;;
22146;SDS011;13074;48.298;14.424;2023-12-28T17:58:22;37.10;;;18.67;;
22146;SDS011;13074;48.298;14.424;2023-12-28T18:00:49;47.27;;;21.97;;
22146;SDS011;13074;48.298;14.424;2023-12-28T18:03:18;47.50;;;22.40;;
22146;SDS011;13074;48.298;14.424;2023-12-28T18:05:46;58.47;;;27.87;;
22146;SDS011;13074;48.298;14.424;2023-12-28T18:08:13;84.10;;;36.47;;
22146;SDS011;13074;48.298;14.424;2023-12-28T18:10:41;78.17;;;35.53;;
22146;SDS011;13074;48.298;14.424;2023-12-28T18:13:08;74.60;;;36.13;;
22146;SDS011;13074;48.298;14.424;2023-12-28T18:15:36;74.37;;;30.43;;
22146;SDS011;13074;48.298;14.424;2023-12-28T18:18:04;63.80;;;31.27;;
22146;SDS011;13074;48.298;14.424;2023-12-28T18:20:33;63.73;;;29.70;;
22146;SDS011;13074;48.298;14.424;2023-12-28T18:23:01;61.80;;;28.07;;
22146;SDS011;13074;48.298;14.424;2023-12-28T18:25:28;66.87;;;27.63;;
22146;SDS011;13074;48.298;14.424;2023-12-28T18:27:56;58.87;;;25.23;;
22146;SDS011;13074;48.298;14.424;2023-12-28T18:30:25;54.30;;;26.70;;
22146;SDS011;13074;48.298;14.424;2023-12-28T18:32:52;58.37;;;29.90;;
22146;SDS011;13074;48.298;14.424;2023-12-28T18:35:20;72.23;;;35.10;;
22146;SDS011;13074;48.298;14.424;2023-12-28T18:37:49;71.47;;;36.40;;
22146;SDS011;13074;48.298;14.424;2023-12-28T18:40:17;75.70;;;33.37;;
22146;SDS011;13074;48.298;14.424;2023-12-28T18:42:45;73.27;;;36.20;;
22146;SDS011;13074;48.298;14.424;2023-12-28T18:45:13;86.17;;;37.70;;
22146;SDS011;13074;48.298;14.424;2023-12-28T18:47:40;86.60;;;41.73;;
22146;SDS011;13074;48.298;14.424;2023-12-28T18:50:08;75.87;;;35.83;;
22146;SDS011;13074;48.298;14.424;2023-12-28T18:52:36;54.87;;;28.13;;
22146;SDS011;13074;48.298;14.424;2023-12-28T18:55:05;58.30;;;29.47;;
22146;SDS011;13074;48.298;14.424;2023-12-28T18:57:33;60.23;;;30.50;;
22146;SDS011;13074;48.298;14.424;2023-12-28T19:00:01;52.00;;;27.57;;
22146;SDS011;13074;48.298;14.424;2023-12-28T19:02:28;49.67;;;24.90;;
22146;SDS011;13074;48.298;14.424;2023-12-28T19:04:56;61.07;;;28.27;;
22146;SDS011;13074;48.298;14.424;2023-12-28T19:07:24;54.07;;;26.67;;